createdAt,value
2023-01-23T00:03:37.093Z,51.00
2023-01-23T00:08:42.899Z,51.60
2023-01-23T00:13:47.309Z,52.00
2023-01-23T00:18:52.784Z,52.20
2023-01-23T00:23:59.154Z,52.60
2023-01-23T00:29:05.051Z,52.30
2023-01-23T00:34:12.965Z,52.30
2023-01-23T00:39:21.423Z,52.40
2023-01-23T00:44:25.643Z,52.50
2023-01-23T00:49:30.204Z,52.50
2023-01-23T00:54:36.242Z,52.50
2023-01-23T00:59:40.119Z,52.50
2023-01-23T01:04:44.225Z,52.30
2023-01-23T01:09:48.345Z,52.20
2023-01-23T01:14:53.921Z,52.50
2023-01-23T01:19:58.043Z,52.40
2023-01-23T01:25:02.182Z,52.50
2023-01-23T01:30:07.204Z,52.40
2023-01-23T01:35:11.781Z,52.70
2023-01-23T01:40:19.758Z,52.60
2023-01-23T01:46:01.640Z,52.50
2023-01-23T01:51:15.015Z,52.60
2023-01-23T01:56:20.640Z,51.60
2023-01-23T02:01:25.261Z,51.00
2023-01-23T02:06:29.404Z,50.60
2023-01-23T02:11:33.939Z,50.10
2023-01-23T02:16:41.397Z,49.80
2023-01-23T02:21:50.280Z,50.00
2023-01-23T02:26:55.861Z,49.60
2023-01-23T02:32:01.574Z,49.40
2023-01-23T02:37:07.950Z,49.30
2023-01-23T02:42:12.865Z,49.30
2023-01-23T02:47:22.021Z,49.10
2023-01-23T02:52:26.267Z,48.90
2023-01-23T02:57:30.279Z,48.80
2023-01-23T03:02:34.443Z,48.90
2023-01-23T03:07:38.561Z,48.70
2023-01-23T03:12:44.020Z,48.50
2023-01-23T03:17:48.893Z,48.90
2023-01-23T03:22:54.148Z,48.90
2023-01-23T03:27:58.282Z,48.60
2023-01-23T03:33:03.020Z,48.60
2023-01-23T03:38:07.460Z,48.70
2023-01-23T03:43:11.701Z,48.40
2023-01-23T03:48:20.747Z,48.40
2023-01-23T03:53:25.700Z,48.50
2023-01-23T03:58:31.160Z,48.60
2023-01-23T04:03:35.894Z,49.10
2023-01-23T04:08:40.860Z,49.50
2023-01-23T04:13:47.159Z,49.80
2023-01-23T04:18:51.723Z,49.90
2023-01-23T04:23:55.842Z,50.10
2023-01-23T04:28:59.979Z,49.70
2023-01-23T04:34:04.820Z,50.70
2023-01-23T04:39:09.160Z,50.20
2023-01-23T04:44:23.227Z,50.40
2023-01-23T04:49:50.239Z,50.60
2023-01-23T04:54:55.320Z,50.80
2023-01-23T05:00:00.548Z,50.80
2023-01-23T05:05:06.825Z,51.00
2023-01-23T05:10:11.840Z,50.90
2023-01-23T05:15:17.679Z,51.40
2023-01-23T05:20:24.048Z,51.20
2023-01-23T05:25:29.369Z,51.60
2023-01-23T05:30:34.670Z,51.50
2023-01-23T05:35:52.162Z,51.50
2023-01-23T05:40:56.414Z,51.40
2023-01-23T05:46:26.452Z,51.70
2023-01-23T05:51:34.313Z,51.10
2023-01-23T05:56:38.782Z,50.40
2023-01-23T06:02:01.420Z,50.10
2023-01-23T06:07:34.121Z,49.80
2023-01-23T06:12:42.443Z,49.50
2023-01-23T06:17:46.658Z,49.10
2023-01-23T06:22:51.352Z,49.20
2023-01-23T06:27:55.463Z,49.10
2023-01-23T06:33:00.621Z,49.00
2023-01-23T06:38:10.779Z,48.80
2023-01-23T06:43:15.741Z,48.60
2023-01-23T06:48:19.982Z,48.70
2023-01-23T06:53:24.616Z,48.60
2023-01-23T06:58:29.500Z,48.90
2023-01-23T07:03:33.725Z,49.10
2023-01-23T07:08:37.942Z,49.10
2023-01-23T07:13:42.283Z,49.30
2023-01-23T07:18:47.041Z,50.00
2023-01-23T07:23:51.486Z,50.40
2023-01-23T07:28:55.638Z,50.60
2023-01-23T07:33:59.481Z,50.40
2023-01-23T07:39:03.588Z,51.50
2023-01-23T07:44:07.399Z,51.10
2023-01-23T07:49:11.754Z,50.60
2023-01-23T07:54:15.695Z,51.60
2023-01-23T07:59:20.014Z,51.10
2023-01-23T08:04:23.955Z,52.00
2023-01-23T08:09:27.989Z,52.00
2023-01-23T08:14:32.324Z,51.50
2023-01-23T08:19:36.565Z,51.50
2023-01-23T08:24:40.455Z,51.40
2023-01-23T08:29:44.742Z,51.40
2023-01-23T08:34:49.275Z,51.30
2023-01-23T08:39:53.431Z,51.40
2023-01-23T08:44:57.157Z,51.40
2023-01-23T08:50:01.164Z,51.50
2023-01-23T08:55:05.608Z,51.60
2023-01-23T09:00:10.969Z,52.00
2023-01-23T09:05:15.300Z,51.40
2023-01-23T09:10:19.691Z,51.40
2023-01-23T09:15:24.085Z,51.40
2023-01-23T09:20:29.668Z,51.40
2023-01-23T09:25:33.692Z,51.00
2023-01-23T09:30:37.741Z,51.30
2023-01-23T09:35:42.081Z,51.40
2023-01-23T09:40:52.371Z,50.90
2023-01-23T09:46:28.409Z,50.00
2023-01-23T09:51:39.194Z,49.40
2023-01-23T09:56:46.911Z,48.70
2023-01-23T10:01:56.894Z,48.80
2023-01-23T10:07:23.006Z,48.20
2023-01-23T10:12:40.153Z,48.20
2023-01-23T10:18:04.014Z,47.60
2023-01-23T10:23:40.293Z,47.80
2023-01-23T10:28:44.412Z,47.90
2023-01-23T10:33:56.766Z,47.80
2023-01-23T10:39:10.732Z,47.70
2023-01-23T10:44:19.815Z,47.70
2023-01-23T10:49:33.721Z,47.90
2023-01-23T10:54:47.239Z,47.50
2023-01-23T11:00:36.137Z,47.80
2023-01-23T11:05:52.627Z,48.10
2023-01-23T11:11:16.079Z,48.50
2023-01-23T11:16:22.626Z,48.70
2023-01-23T11:21:34.405Z,48.60
2023-01-23T11:26:39.261Z,48.60
2023-01-23T11:31:43.915Z,49.20
2023-01-23T11:37:03.151Z,48.50
2023-01-23T11:42:11.821Z,48.20
2023-01-23T11:47:39.785Z,48.10
2023-01-23T11:53:07.805Z,48.10
2023-01-23T11:58:50.663Z,48.20
2023-01-23T12:04:26.680Z,49.40
2023-01-23T12:10:03.054Z,48.80
2023-01-23T12:15:27.121Z,49.20
2023-01-23T12:20:46.139Z,49.50
2023-01-23T12:26:08.152Z,49.70
2023-01-23T12:31:41.409Z,49.60
2023-01-23T12:37:08.452Z,49.60
2023-01-23T12:42:22.561Z,50.90
2023-01-23T12:47:45.023Z,51.80
2023-01-23T12:53:21.663Z,52.00
2023-01-23T12:58:28.581Z,52.50
2023-01-23T13:03:55.135Z,54.00
2023-01-23T13:09:16.802Z,54.30
2023-01-23T13:15:06.875Z,54.60
2023-01-23T13:20:47.350Z,55.00
2023-01-23T13:26:12.965Z,55.60
2023-01-23T13:31:45.586Z,55.80
2023-01-23T13:36:51.783Z,56.20
2023-01-23T13:42:14.663Z,56.50
2023-01-23T14:22:28.700Z,56.10
2023-01-23T14:28:17.883Z,56.10
2023-01-23T14:33:22.620Z,55.60
2023-01-23T14:38:33.799Z,56.50
2023-01-23T14:43:38.862Z,56.60
2023-01-23T14:48:45.462Z,57.10
2023-01-23T14:54:01.397Z,56.70
2023-01-23T14:59:21.985Z,56.90
2023-01-23T15:04:29.566Z,56.20
2023-01-23T15:09:43.142Z,56.70
2023-01-23T15:14:47.281Z,56.00
2023-01-23T15:19:55.832Z,56.90
2023-01-23T15:25:28.810Z,56.40
2023-01-23T15:30:48.808Z,56.30
2023-01-23T15:35:53.449Z,56.10
2023-01-23T15:40:59.645Z,56.10
2023-01-23T15:46:04.202Z,56.00
2023-01-23T15:51:11.788Z,56.20
2023-01-23T15:56:28.487Z,56.00
2023-01-23T16:01:34.406Z,55.90
2023-01-23T16:06:39.749Z,55.90
2023-01-23T16:11:44.601Z,55.80
2023-01-23T16:16:49.061Z,55.10
2023-01-23T16:22:04.336Z,56.70
2023-01-23T16:27:18.585Z,58.00
2023-01-23T16:32:23.374Z,59.10
2023-01-23T16:37:27.586Z,57.90
2023-01-23T16:42:32.282Z,58.10
2023-01-23T16:47:36.863Z,59.70
2023-01-23T16:52:44.265Z,60.40
2023-01-23T16:57:55.467Z,61.00
2023-01-23T17:03:04.818Z,61.00
2023-01-23T17:08:21.165Z,61.40
2023-01-23T17:13:27.049Z,61.20
2023-01-23T17:18:36.968Z,61.70
2023-01-23T17:23:41.435Z,61.40
2023-01-23T17:28:47.295Z,61.30
2023-01-23T17:33:56.840Z,61.40
2023-01-23T17:39:01.789Z,61.80
2023-01-23T17:44:06.244Z,61.60
2023-01-23T17:49:33.472Z,62.20
2023-01-23T17:54:39.555Z,61.00
2023-01-23T17:59:46.247Z,61.00
2023-01-23T18:05:00.753Z,61.30
2023-01-23T18:10:08.194Z,61.20
2023-01-23T18:15:30.029Z,61.20
2023-01-23T18:20:41.386Z,60.50
2023-01-23T18:25:47.748Z,60.60
2023-01-23T18:31:01.442Z,61.00
2023-01-23T18:36:23.406Z,61.90
2023-01-23T18:41:30.407Z,60.70
2023-01-23T18:46:36.564Z,60.00
2023-01-23T18:52:13.723Z,60.10
2023-01-23T18:57:44.800Z,62.50
2023-01-23T19:02:57.828Z,62.30
2023-01-23T19:08:03.926Z,61.90
2023-01-23T19:13:30.566Z,61.70
2023-01-23T19:18:41.910Z,61.30
2023-01-23T19:23:48.945Z,61.50
2023-01-23T19:28:54.870Z,61.30
2023-01-23T19:34:05.189Z,61.50
2023-01-23T19:39:12.153Z,60.90
2023-01-23T19:44:20.838Z,61.10
2023-01-23T19:49:28.442Z,61.80
2023-01-23T19:54:34.590Z,62.50
2023-01-23T19:59:40.413Z,62.60
2023-01-23T20:04:47.751Z,62.50
2023-01-23T20:09:54.311Z,61.90
2023-01-23T20:14:59.916Z,62.30
2023-01-23T20:20:12.427Z,62.90
2023-01-23T20:25:19.258Z,62.80
2023-01-23T20:30:27.115Z,62.70
2023-01-23T20:35:33.179Z,61.20
2023-01-23T20:40:40.026Z,61.00
2023-01-23T20:45:50.513Z,60.80
2023-01-23T20:51:00.008Z,60.90
2023-01-23T20:56:11.577Z,60.40
2023-01-23T21:01:21.535Z,60.60
2023-01-23T21:06:27.501Z,60.90
2023-01-23T21:11:33.308Z,60.80
2023-01-23T21:16:39.456Z,60.40
2023-01-23T21:21:43.837Z,60.40
2023-01-23T21:26:49.496Z,60.50
2023-01-23T21:31:54.375Z,60.70
2023-01-23T21:36:59.372Z,60.10
2023-01-23T21:42:04.006Z,60.00
2023-01-23T21:47:07.942Z,59.40
2023-01-23T21:52:12.112Z,59.50
2023-01-23T21:57:16.521Z,59.30
2023-01-23T22:02:20.975Z,59.40
2023-01-23T22:07:25.213Z,58.80
2023-01-23T22:12:29.222Z,58.60
2023-01-23T22:17:34.441Z,58.70
2023-01-23T22:22:38.629Z,58.50
2023-01-23T22:27:42.551Z,63.60
2023-01-23T22:32:46.487Z,62.10
2023-01-23T22:37:50.521Z,63.10
2023-01-23T22:42:54.555Z,62.10
2023-01-23T22:47:58.809Z,62.60
2023-01-23T22:53:02.919Z,62.20
2023-01-23T22:58:07.267Z,61.70
2023-01-23T23:03:11.286Z,61.70
2023-01-23T23:08:15.540Z,61.00
2023-01-23T23:13:20.598Z,61.10
2023-01-23T23:18:24.830Z,60.80
2023-01-23T23:23:29.433Z,61.20
2023-01-23T23:28:34.544Z,61.50
2023-01-23T23:33:38.775Z,61.60
2023-01-23T23:38:42.718Z,61.30
2023-01-23T23:43:46.915Z,61.60
2023-01-23T23:48:50.832Z,61.70
2023-01-23T23:53:55.919Z,61.50
2023-01-23T23:58:59.873Z,61.50
